sensor_id;sensor_type;location;lat;lon;timestamp;P1;durP1;ratioP1;P2;durP2;ratioP2
21905;SDS011;11117;48.644;9.006;2023-07-02T00:00:37;3.15;;;0.95;;
21905;SDS011;11117;48.644;9.006;2023-07-02T00:03:03;1.13;;;0.88;;
21905;SDS011;11117;48.644;9.006;2023-07-02T00:05:28;1.10;;;0.80;;
21905;SDS011;11117;48.644;9.006;2023-07-02T00:07:54;1.42;;;0.68;;
21905;SDS011;11117;48.644;9.006;2023-07-02T00:10:19;1.10;;;0.70;;
21905;SDS011;11117;48.644;9.006;2023-07-02T00:12:45;3.45;;;0.80;;
21905;SDS011;11117;48.644;9.006;2023-07-02T00:15:10;0.88;;;0.60;;
21905;SDS011;11117;48.644;9.006;2023-07-02T00:17:36;1.13;;;0.60;;
21905;SDS011;11117;48.644;9.006;2023-07-02T00:20:01;0.75;;;0.70;;
21905;SDS011;11117;48.644;9.006;2023-07-02T00:22:27;1.40;;;0.80;;
21905;SDS011;11117;48.644;9.006;2023-07-02T00:24:52;0.82;;;0.82;;
21905;SDS011;11117;48.644;9.006;2023-07-02T00:27:18;0.60;;;0.60;;
21905;SDS011;11117;48.644;9.006;2023-07-02T00:29:43;0.60;;;0.60;;
21905;SDS011;11117;48.644;9.006;2023-07-02T00:32:09;0.80;;;0.80;;
21905;SDS011;11117;48.644;9.006;2023-07-02T00:34:34;1.17;;;0.70;;
21905;SDS011;11117;48.644;9.006;2023-07-02T00:37:00;0.93;;;0.60;;
21905;SDS011;11117;48.644;9.006;2023-07-02T00:39:25;1.30;;;0.80;;
21905;SDS011;11117;48.644;9.006;2023-07-02T00:41:51;1.33;;;0.70;;
21905;SDS011;11117;48.644;9.006;2023-07-02T00:44:16;1.10;;;0.75;;
21905;SDS011;11117;48.644;9.006;2023-07-02T00:46:42;1.33;;;0.80;;
21905;SDS011;11117;48.644;9.006;2023-07-02T00:49:07;0.77;;;0.70;;
21905;SDS011;11117;48.644;9.006;2023-07-02T00:51:34;0.75;;;0.60;;
21905;SDS011;11117;48.644;9.006;2023-07-02T00:53:59;0.70;;;0.70;;
21905;SDS011;11117;48.644;9.006;2023-07-02T00:56:25;1.13;;;0.80;;
21905;SDS011;11117;48.644;9.006;2023-07-02T00:58:54;1.23;;;0.60;;
21905;SDS011;11117;48.644;9.006;2023-07-02T01:01:21;1.23;;;0.88;;
21905;SDS011;11117;48.644;9.006;2023-07-02T01:06:17;0.60;;;0.60;;
21905;SDS011;11117;48.644;9.006;2023-07-02T01:08:43;1.55;;;0.70;;
21905;SDS011;11117;48.644;9.006;2023-07-02T01:11:08;2.50;;;0.60;;
21905;SDS011;11117;48.644;9.006;2023-07-02T01:13:34;1.60;;;0.75;;
21905;SDS011;11117;48.644;9.006;2023-07-02T01:15:59;0.75;;;0.75;;
21905;SDS011;11117;48.644;9.006;2023-07-02T01:18:25;1.42;;;0.60;;
21905;SDS011;11117;48.644;9.006;2023-07-02T01:20:51;1.58;;;0.73;;
21905;SDS011;11117;48.644;9.006;2023-07-02T01:23:18;1.05;;;0.77;;
21905;SDS011;11117;48.644;9.006;2023-07-02T01:25:45;1.13;;;0.68;;
21905;SDS011;11117;48.644;9.006;2023-07-02T01:28:10;1.00;;;0.70;;
21905;SDS011;11117;48.644;9.006;2023-07-02T01:30:36;0.60;;;0.60;;
21905;SDS011;11117;48.644;9.006;2023-07-02T01:33:01;1.58;;;0.73;;
21905;SDS011;11117;48.644;9.006;2023-07-02T01:35:27;0.60;;;0.60;;
21905;SDS011;11117;48.644;9.006;2023-07-02T01:37:52;0.50;;;0.50;;
21905;SDS011;11117;48.644;9.006;2023-07-02T01:40:18;1.00;;;0.88;;
21905;SDS011;11117;48.644;9.006;2023-07-02T01:42:43;2.00;;;0.77;;
21905;SDS011;11117;48.644;9.006;2023-07-02T01:45:09;0.77;;;0.70;;
21905;SDS011;11117;48.644;9.006;2023-07-02T01:47:35;0.80;;;0.70;;
21905;SDS011;11117;48.644;9.006;2023-07-02T01:50:01;0.80;;;0.60;;
21905;SDS011;11117;48.644;9.006;2023-07-02T01:52:28;0.57;;;0.57;;
21905;SDS011;11117;48.644;9.006;2023-07-02T01:54:54;1.05;;;0.77;;
21905;SDS011;11117;48.644;9.006;2023-07-02T01:57:19;0.70;;;0.70;;
21905;SDS011;11117;48.644;9.006;2023-07-02T01:59:45;1.05;;;0.70;;
21905;SDS011;11117;48.644;9.006;2023-07-02T02:02:10;0.47;;;0.47;;
21905;SDS011;11117;48.644;9.006;2023-07-02T02:04:36;0.52;;;0.52;;
21905;SDS011;11117;48.644;9.006;2023-07-02T02:07:01;0.65;;;0.60;;
21905;SDS011;11117;48.644;9.006;2023-07-02T02:09:27;0.60;;;0.60;;
21905;SDS011;11117;48.644;9.006;2023-07-02T02:11:52;0.77;;;0.73;;
21905;SDS011;11117;48.644;9.006;2023-07-02T02:14:18;0.65;;;0.65;;
21905;SDS011;11117;48.644;9.006;2023-07-02T02:16:44;0.60;;;0.60;;
21905;SDS011;11117;48.644;9.006;2023-07-02T02:19:09;0.60;;;0.60;;
21905;SDS011;11117;48.644;9.006;2023-07-02T02:21:35;0.60;;;0.60;;
21905;SDS011;11117;48.644;9.006;2023-07-02T02:24:00;2.15;;;0.60;;
21905;SDS011;11117;48.644;9.006;2023-07-02T02:26:26;0.77;;;0.60;;
21905;SDS011;11117;48.644;9.006;2023-07-02T02:28:51;0.70;;;0.70;;
21905;SDS011;11117;48.644;9.006;2023-07-02T02:31:17;0.77;;;0.60;;
21905;SDS011;11117;48.644;9.006;2023-07-02T02:33:43;1.73;;;0.70;;
21905;SDS011;11117;48.644;9.006;2023-07-02T02:36:09;0.45;;;0.45;;
21905;SDS011;11117;48.644;9.006;2023-07-02T02:38:34;0.63;;;0.63;;
21905;SDS011;11117;48.644;9.006;2023-07-02T02:41:00;0.98;;;0.63;;
21905;SDS011;11117;48.644;9.006;2023-07-02T02:43:25;0.90;;;0.60;;
21905;SDS011;11117;48.644;9.006;2023-07-02T02:45:51;0.60;;;0.60;;
21905;SDS011;11117;48.644;9.006;2023-07-02T02:48:17;0.60;;;0.60;;
21905;SDS011;11117;48.644;9.006;2023-07-02T02:50:43;0.98;;;0.68;;
21905;SDS011;11117;48.644;9.006;2023-07-02T02:53:10;0.88;;;0.70;;
21905;SDS011;11117;48.644;9.006;2023-07-02T02:55:36;0.68;;;0.60;;
21905;SDS011;11117;48.644;9.006;2023-07-02T02:58:02;1.00;;;0.60;;
21905;SDS011;11117;48.644;9.006;2023-07-02T03:00:27;0.70;;;0.70;;
21905;SDS011;11117;48.644;9.006;2023-07-02T03:02:53;0.55;;;0.55;;
21905;SDS011;11117;48.644;9.006;2023-07-02T03:05:18;0.73;;;0.63;;
21905;SDS011;11117;48.644;9.006;2023-07-02T03:07:44;0.70;;;0.50;;
21905;SDS011;11117;48.644;9.006;2023-07-02T03:10:09;0.60;;;0.60;;
21905;SDS011;11117;48.644;9.006;2023-07-02T03:12:35;0.70;;;0.70;;
21905;SDS011;11117;48.644;9.006;2023-07-02T03:15:00;0.80;;;0.70;;
21905;SDS011;11117;48.644;9.006;2023-07-02T03:17:26;0.50;;;0.50;;
21905;SDS011;11117;48.644;9.006;2023-07-02T03:19:51;0.90;;;0.70;;
21905;SDS011;11117;48.644;9.006;2023-07-02T03:22:17;0.55;;;0.55;;
21905;SDS011;11117;48.644;9.006;2023-07-02T03:24:43;0.80;;;0.60;;
21905;SDS011;11117;48.644;9.006;2023-07-02T03:27:08;0.50;;;0.50;;
21905;SDS011;11117;48.644;9.006;2023-07-02T03:29:34;0.77;;;0.65;;
21905;SDS011;11117;48.644;9.006;2023-07-02T03:32:00;0.80;;;0.60;;
21905;SDS011;11117;48.644;9.006;2023-07-02T03:34:26;0.80;;;0.60;;
21905;SDS011;11117;48.644;9.006;2023-07-02T03:36:52;0.70;;;0.60;;
21905;SDS011;11117;48.644;9.006;2023-07-02T03:39:18;0.73;;;0.50;;
21905;SDS011;11117;48.644;9.006;2023-07-02T03:41:43;0.77;;;0.60;;
21905;SDS011;11117;48.644;9.006;2023-07-02T03:44:09;0.60;;;0.60;;
21905;SDS011;11117;48.644;9.006;2023-07-02T03:46:35;0.57;;;0.57;;
21905;SDS011;11117;48.644;9.006;2023-07-02T03:49:01;0.65;;;0.65;;
21905;SDS011;11117;48.644;9.006;2023-07-02T03:51:27;0.60;;;0.50;;
21905;SDS011;11117;48.644;9.006;2023-07-02T03:53:53;0.50;;;0.50;;
21905;SDS011;11117;48.644;9.006;2023-07-02T03:56:18;0.50;;;0.50;;
21905;SDS011;11117;48.644;9.006;2023-07-02T03:58:44;0.57;;;0.50;;
21905;SDS011;11117;48.644;9.006;2023-07-02T04:01:09;0.57;;;0.57;;
21905;SDS011;11117;48.644;9.006;2023-07-02T04:03:35;0.50;;;0.50;;
21905;SDS011;11117;48.644;9.006;2023-07-02T04:06:00;0.60;;;0.50;;
21905;SDS011;11117;48.644;9.006;2023-07-02T04:08:26;0.52;;;0.52;;
21905;SDS011;11117;48.644;9.006;2023-07-02T04:10:51;0.50;;;0.50;;
21905;SDS011;11117;48.644;9.006;2023-07-02T04:13:18;0.95;;;0.47;;
21905;SDS011;11117;48.644;9.006;2023-07-02T04:15:43;0.63;;;0.60;;
21905;SDS011;11117;48.644;9.006;2023-07-02T04:18:09;0.50;;;0.50;;
21905;SDS011;11117;48.644;9.006;2023-07-02T04:20:34;0.50;;;0.50;;
21905;SDS011;11117;48.644;9.006;2023-07-02T04:23:00;0.50;;;0.50;;
21905;SDS011;11117;48.644;9.006;2023-07-02T04:25:25;0.55;;;0.50;;
21905;SDS011;11117;48.644;9.006;2023-07-02T04:27:51;0.75;;;0.55;;
21905;SDS011;11117;48.644;9.006;2023-07-02T04:30:16;0.60;;;0.60;;
21905;SDS011;11117;48.644;9.006;2023-07-02T04:32:42;0.80;;;0.50;;
21905;SDS011;11117;48.644;9.006;2023-07-02T04:35:08;0.88;;;0.60;;
21905;SDS011;11117;48.644;9.006;2023-07-02T04:37:34;0.63;;;0.55;;
21905;SDS011;11117;48.644;9.006;2023-07-02T04:40:00;1.27;;;0.60;;
21905;SDS011;11117;48.644;9.006;2023-07-02T04:42:26;1.02;;;0.50;;
21905;SDS011;11117;48.644;9.006;2023-07-02T04:44:52;2.83;;;0.50;;
21905;SDS011;11117;48.644;9.006;2023-07-02T04:47:20;0.50;;;0.50;;
21905;SDS011;11117;48.644;9.006;2023-07-02T04:49:46;0.52;;;0.52;;
21905;SDS011;11117;48.644;9.006;2023-07-02T04:52:11;0.95;;;0.55;;
21905;SDS011;11117;48.644;9.006;2023-07-02T04:54:37;0.60;;;0.60;;
21905;SDS011;11117;48.644;9.006;2023-07-02T04:57:02;0.50;;;0.50;;
21905;SDS011;11117;48.644;9.006;2023-07-02T04:59:28;0.50;;;0.50;;
21905;SDS011;11117;48.644;9.006;2023-07-02T05:01:54;0.77;;;0.50;;
21905;SDS011;11117;48.644;9.006;2023-07-02T05:04:19;0.85;;;0.60;;
21905;SDS011;11117;48.644;9.006;2023-07-02T05:06:45;0.40;;;0.40;;
21905;SDS011;11117;48.644;9.006;2023-07-02T05:09:11;0.50;;;0.50;;
21905;SDS011;11117;48.644;9.006;2023-07-02T05:11:36;0.50;;;0.50;;
21905;SDS011;11117;48.644;9.006;2023-07-02T05:14:02;1.00;;;0.60;;
21905;SDS011;11117;48.644;9.006;2023-07-02T05:16:27;0.60;;;0.50;;
21905;SDS011;11117;48.644;9.006;2023-07-02T05:18:53;0.60;;;0.60;;
21905;SDS011;11117;48.644;9.006;2023-07-02T05:21:19;0.68;;;0.63;;
21905;SDS011;11117;48.644;9.006;2023-07-02T05:23:44;1.95;;;0.60;;
21905;SDS011;11117;48.644;9.006;2023-07-02T05:26:10;0.50;;;0.50;;
21905;SDS011;11117;48.644;9.006;2023-07-02T05:28:35;0.45;;;0.45;;
21905;SDS011;11117;48.644;9.006;2023-07-02T05:31:01;0.60;;;0.60;;
21905;SDS011;11117;48.644;9.006;2023-07-02T05:33:27;1.00;;;0.50;;
21905;SDS011;11117;48.644;9.006;2023-07-02T05:35:52;0.55;;;0.50;;
21905;SDS011;11117;48.644;9.006;2023-07-02T05:38:19;0.68;;;0.50;;
21905;SDS011;11117;48.644;9.006;2023-07-02T05:40:45;0.85;;;0.60;;
21905;SDS011;11117;48.644;9.006;2023-07-02T05:43:10;0.60;;;0.55;;
21905;SDS011;11117;48.644;9.006;2023-07-02T05:45:36;0.40;;;0.40;;
21905;SDS011;11117;48.644;9.006;2023-07-02T05:48:02;0.40;;;0.40;;
21905;SDS011;11117;48.644;9.006;2023-07-02T05:50:28;0.52;;;0.50;;
21905;SDS011;11117;48.644;9.006;2023-07-02T05:52:53;0.85;;;0.40;;
21905;SDS011;11117;48.644;9.006;2023-07-02T05:55:19;0.47;;;0.47;;
21905;SDS011;11117;48.644;9.006;2023-07-02T05:57:45;0.30;;;0.30;;
21905;SDS011;11117;48.644;9.006;2023-07-02T06:00:10;1.13;;;0.68;;
21905;SDS011;11117;48.644;9.006;2023-07-02T06:02:37;0.60;;;0.60;;
21905;SDS011;11117;48.644;9.006;2023-07-02T06:05:03;0.50;;;0.50;;
21905;SDS011;11117;48.644;9.006;2023-07-02T06:07:29;0.43;;;0.43;;
21905;SDS011;11117;48.644;9.006;2023-07-02T06:09:54;0.50;;;0.50;;
21905;SDS011;11117;48.644;9.006;2023-07-02T06:12:20;0.50;;;0.50;;
21905;SDS011;11117;48.644;9.006;2023-07-02T06:14:46;0.88;;;0.60;;
21905;SDS011;11117;48.644;9.006;2023-07-02T06:17:12;1.33;;;0.50;;
21905;SDS011;11117;48.644;9.006;2023-07-02T06:19:38;1.02;;;0.60;;
21905;SDS011;11117;48.644;9.006;2023-07-02T06:22:04;0.47;;;0.47;;
21905;SDS011;11117;48.644;9.006;2023-07-02T06:24:30;0.50;;;0.50;;
21905;SDS011;11117;48.644;9.006;2023-07-02T06:26:56;0.57;;;0.57;;
21905;SDS011;11117;48.644;9.006;2023-07-02T06:29:22;0.50;;;0.50;;
21905;SDS011;11117;48.644;9.006;2023-07-02T06:31:48;0.68;;;0.50;;
21905;SDS011;11117;48.644;9.006;2023-07-02T06:34:14;0.32;;;0.32;;
21905;SDS011;11117;48.644;9.006;2023-07-02T06:36:40;0.40;;;0.40;;
21905;SDS011;11117;48.644;9.006;2023-07-02T06:39:05;0.80;;;0.50;;
21905;SDS011;11117;48.644;9.006;2023-07-02T06:41:31;0.40;;;0.40;;
21905;SDS011;11117;48.644;9.006;2023-07-02T06:43:56;0.50;;;0.50;;
21905;SDS011;11117;48.644;9.006;2023-07-02T06:46:22;0.70;;;0.50;;
21905;SDS011;11117;48.644;9.006;2023-07-02T06:48:47;0.63;;;0.50;;
21905;SDS011;11117;48.644;9.006;2023-07-02T06:51:13;0.60;;;0.50;;
21905;SDS011;11117;48.644;9.006;2023-07-02T06:53:38;0.45;;;0.30;;
21905;SDS011;11117;48.644;9.006;2023-07-02T06:56:04;0.50;;;0.50;;
21905;SDS011;11117;48.644;9.006;2023-07-02T06:58:30;0.75;;;0.60;;
21905;SDS011;11117;48.644;9.006;2023-07-02T07:00:55;0.68;;;0.50;;
21905;SDS011;11117;48.644;9.006;2023-07-02T07:03:21;0.52;;;0.35;;
21905;SDS011;11117;48.644;9.006;2023-07-02T07:05:46;0.50;;;0.50;;
21905;SDS011;11117;48.644;9.006;2023-07-02T07:08:12;0.50;;;0.40;;
21905;SDS011;11117;48.644;9.006;2023-07-02T07:10:37;0.40;;;0.40;;
21905;SDS011;11117;48.644;9.006;2023-07-02T07:13:03;0.90;;;0.55;;
21905;SDS011;11117;48.644;9.006;2023-07-02T07:15:32;0.57;;;0.35;;
21905;SDS011;11117;48.644;9.006;2023-07-02T07:17:59;0.40;;;0.40;;
21905;SDS011;11117;48.644;9.006;2023-07-02T07:20:24;0.50;;;0.50;;
21905;SDS011;11117;48.644;9.006;2023-07-02T07:22:50;0.50;;;0.50;;
21905;SDS011;11117;48.644;9.006;2023-07-02T07:25:15;1.13;;;0.40;;
21905;SDS011;11117;48.644;9.006;2023-07-02T07:27:41;0.50;;;0.50;;
21905;SDS011;11117;48.644;9.006;2023-07-02T07:30:06;1.98;;;0.50;;
21905;SDS011;11117;48.644;9.006;2023-07-02T07:32:32;0.80;;;0.60;;
21905;SDS011;11117;48.644;9.006;2023-07-02T07:34:58;0.55;;;0.50;;
21905;SDS011;11117;48.644;9.006;2023-07-02T07:37:24;0.40;;;0.40;;
21905;SDS011;11117;48.644;9.006;2023-07-02T07:39:49;0.73;;;0.50;;
21905;SDS011;11117;48.644;9.006;2023-07-02T07:42:15;0.60;;;0.60;;
21905;SDS011;11117;48.644;9.006;2023-07-02T07:44:40;1.05;;;0.52;;
21905;SDS011;11117;48.644;9.006;2023-07-02T07:47:06;0.88;;;0.60;;
21905;SDS011;11117;48.644;9.006;2023-07-02T07:49:31;2.38;;;0.50;;
21905;SDS011;11117;48.644;9.006;2023-07-02T07:51:57;0.52;;;0.52;;
21905;SDS011;11117;48.644;9.006;2023-07-02T07:54:22;1.08;;;0.60;;
21905;SDS011;11117;48.644;9.006;2023-07-02T07:56:48;0.63;;;0.55;;
21905;SDS011;11117;48.644;9.006;2023-07-02T07:59:13;0.50;;;0.50;;
21905;SDS011;11117;48.644;9.006;2023-07-02T08:01:39;0.85;;;0.60;;
21905;SDS011;11117;48.644;9.006;2023-07-02T08:04:04;0.50;;;0.50;;
21905;SDS011;11117;48.644;9.006;2023-07-02T08:06:30;1.00;;;0.60;;
21905;SDS011;11117;48.644;9.006;2023-07-02T08:08:55;0.73;;;0.60;;
21905;SDS011;11117;48.644;9.006;2023-07-02T08:11:21;0.60;;;0.52;;
21905;SDS011;11117;48.644;9.006;2023-07-02T08:13:46;1.05;;;0.60;;
21905;SDS011;11117;48.644;9.006;2023-07-02T08:16:12;0.85;;;0.60;;
21905;SDS011;11117;48.644;9.006;2023-07-02T08:18:37;0.50;;;0.50;;
21905;SDS011;11117;48.644;9.006;2023-07-02T08:21:03;0.68;;;0.60;;
21905;SDS011;11117;48.644;9.006;2023-07-02T08:23:28;0.50;;;0.50;;
21905;SDS011;11117;48.644;9.006;2023-07-02T08:25:54;0.45;;;0.45;;
21905;SDS011;11117;48.644;9.006;2023-07-02T08:28:20;0.40;;;0.40;;
21905;SDS011;11117;48.644;9.006;2023-07-02T08:30:45;1.27;;;0.60;;
21905;SDS011;11117;48.644;9.006;2023-07-02T08:33:11;0.80;;;0.65;;
21905;SDS011;11117;48.644;9.006;2023-07-02T08:35:37;0.60;;;0.60;;
21905;SDS011;11117;48.644;9.006;2023-07-02T08:38:02;1.00;;;0.90;;
21905;SDS011;11117;48.644;9.006;2023-07-02T08:40:28;1.15;;;0.80;;
21905;SDS011;11117;48.644;9.006;2023-07-02T08:42:53;1.10;;;0.80;;
21905;SDS011;11117;48.644;9.006;2023-07-02T08:45:20;1.40;;;1.20;;
21905;SDS011;11117;48.644;9.006;2023-07-02T08:47:48;1.10;;;0.85;;
21905;SDS011;11117;48.644;9.006;2023-07-02T08:50:13;1.00;;;0.90;;
21905;SDS011;11117;48.644;9.006;2023-07-02T08:52:39;1.13;;;1.02;;
21905;SDS011;11117;48.644;9.006;2023-07-02T08:55:05;1.02;;;0.80;;
21905;SDS011;11117;48.644;9.006;2023-07-02T08:57:31;14.15;;;7.40;;
21905;SDS011;11117;48.644;9.006;2023-07-02T08:59:56;19.95;;;9.30;;
21905;SDS011;11117;48.644;9.006;2023-07-02T09:02:31;22.10;;;10.32;;
21905;SDS011;11117;48.644;9.006;2023-07-02T09:05:00;21.10;;;10.57;;
21905;SDS011;11117;48.644;9.006;2023-07-02T09:07:29;20.65;;;10.98;;
21905;SDS011;11117;48.644;9.006;2023-07-02T09:09:54;25.55;;;11.20;;
21905;SDS011;11117;48.644;9.006;2023-07-02T09:12:27;21.20;;;10.73;;
21905;SDS011;11117;48.644;9.006;2023-07-02T09:14:57;20.77;;;10.85;;
21905;SDS011;11117;48.644;9.006;2023-07-02T09:17:30;17.92;;;10.60;;
21905;SDS011;11117;48.644;9.006;2023-07-02T09:19:58;21.83;;;10.75;;
21905;SDS011;11117;48.644;9.006;2023-07-02T09:22:24;21.83;;;10.68;;
21905;SDS011;11117;48.644;9.006;2023-07-02T09:24:53;19.45;;;10.55;;
21905;SDS011;11117;48.644;9.006;2023-07-02T09:27:20;18.83;;;10.73;;
21905;SDS011;11117;48.644;9.006;2023-07-02T09:29:50;17.98;;;10.80;;
21905;SDS011;11117;48.644;9.006;2023-07-02T09:32:23;23.55;;;11.30;;
21905;SDS011;11117;48.644;9.006;2023-07-02T09:34:49;19.08;;;10.80;;
21905;SDS011;11117;48.644;9.006;2023-07-02T09:37:15;17.23;;;11.10;;
21905;SDS011;11117;48.644;9.006;2023-07-02T09:39:41;17.95;;;11.57;;
21905;SDS011;11117;48.644;9.006;2023-07-02T09:42:07;23.05;;;12.93;;
21905;SDS011;11117;48.644;9.006;2023-07-02T09:44:33;27.90;;;14.48;;
21905;SDS011;11117;48.644;9.006;2023-07-02T09:47:09;23.55;;;14.43;;
21905;SDS011;11117;48.644;9.006;2023-07-02T09:49:37;35.17;;;14.43;;
21905;SDS011;11117;48.644;9.006;2023-07-02T09:52:06;23.67;;;13.98;;
21905;SDS011;11117;48.644;9.006;2023-07-02T09:54:33;26.95;;;14.55;;
21905;SDS011;11117;48.644;9.006;2023-07-02T09:56:59;25.63;;;13.60;;
21905;SDS011;11117;48.644;9.006;2023-07-02T09:59:26;21.70;;;13.07;;
21905;SDS011;11117;48.644;9.006;2023-07-02T10:01:52;25.63;;;14.00;;
21905;SDS011;11117;48.644;9.006;2023-07-02T10:04:18;21.80;;;12.98;;
21905;SDS011;11117;48.644;9.006;2023-07-02T10:06:54;22.70;;;12.50;;
21905;SDS011;11117;48.644;9.006;2023-07-02T10:09:21;23.42;;;13.93;;
21905;SDS011;11117;48.644;9.006;2023-07-02T10:12:16;23.75;;;14.40;;
21905;SDS011;11117;48.644;9.006;2023-07-02T10:14:49;24.52;;;14.43;;
21905;SDS011;11117;48.644;9.006;2023-07-02T10:17:25;25.25;;;14.60;;
21905;SDS011;11117;48.644;9.006;2023-07-02T10:19:59;22.25;;;14.35;;
21905;SDS011;11117;48.644;9.006;2023-07-02T10:22:26;26.05;;;15.40;;
21905;SDS011;11117;48.644;9.006;2023-07-02T10:24:55;26.83;;;14.75;;
21905;SDS011;11117;48.644;9.006;2023-07-02T10:27:32;30.17;;;14.75;;
21905;SDS011;11117;48.644;9.006;2023-07-02T10:30:02;22.17;;;14.18;;
21905;SDS011;11117;48.644;9.006;2023-07-02T10:32:29;25.02;;;14.65;;
21905;SDS011;11117;48.644;9.006;2023-07-02T10:34:54;25.50;;;14.98;;
21905;SDS011;11117;48.644;9.006;2023-07-02T10:37:20;24.17;;;15.05;;
21905;SDS011;11117;48.644;9.006;2023-07-02T10:39:46;24.90;;;14.93;;
21905;SDS011;11117;48.644;9.006;2023-07-02T10:42:11;22.65;;;14.40;;
21905;SDS011;11117;48.644;9.006;2023-07-02T10:44:50;23.42;;;14.10;;
21905;SDS011;11117;48.644;9.006;2023-07-02T10:47:16;23.45;;;14.70;;
21905;SDS011;11117;48.644;9.006;2023-07-02T10:49:42;23.35;;;14.15;;
21905;SDS011;11117;48.644;9.006;2023-07-02T10:52:08;21.95;;;13.82;;
21905;SDS011;11117;48.644;9.006;2023-07-02T10:54:43;23.08;;;13.38;;
21905;SDS011;11117;48.644;9.006;2023-07-02T10:57:12;23.95;;;14.05;;
21905;SDS011;11117;48.644;9.006;2023-07-02T10:59:39;25.83;;;13.50;;
21905;SDS011;11117;48.644;9.006;2023-07-02T11:02:04;20.60;;;13.77;;
21905;SDS011;11117;48.644;9.006;2023-07-02T11:04:30;22.50;;;13.40;;
21905;SDS011;11117;48.644;9.006;2023-07-02T11:06:56;22.23;;;14.00;;
21905;SDS011;11117;48.644;9.006;2023-07-02T11:09:22;21.88;;;13.27;;
21905;SDS011;11117;48.644;9.006;2023-07-02T11:11:51;23.92;;;13.32;;
21905;SDS011;11117;48.644;9.006;2023-07-02T11:16:57;21.90;;;13.02;;
21905;SDS011;11117;48.644;9.006;2023-07-02T11:19:24;21.42;;;12.85;;
21905;SDS011;11117;48.644;9.006;2023-07-02T11:21:50;24.13;;;13.85;;
21905;SDS011;11117;48.644;9.006;2023-07-02T11:24:33;22.10;;;13.52;;
21905;SDS011;11117;48.644;9.006;2023-07-02T11:27:00;21.70;;;12.82;;
21905;SDS011;11117;48.644;9.006;2023-07-02T11:29:31;20.35;;;13.55;;
21905;SDS011;11117;48.644;9.006;2023-07-02T11:32:06;20.45;;;13.02;;
21905;SDS011;11117;48.644;9.006;2023-07-02T11:34:33;19.98;;;13.00;;
21905;SDS011;11117;48.644;9.006;2023-07-02T11:36:58;22.85;;;13.38;;
21905;SDS011;11117;48.644;9.006;2023-07-02T11:39:24;22.83;;;12.75;;
21905;SDS011;11117;48.644;9.006;2023-07-02T11:41:49;22.60;;;13.77;;
21905;SDS011;11117;48.644;9.006;2023-07-02T11:44:15;23.30;;;13.40;;
21905;SDS011;11117;48.644;9.006;2023-07-02T11:46:40;22.45;;;12.43;;
21905;SDS011;11117;48.644;9.006;2023-07-02T11:49:06;23.67;;;13.48;;
21905;SDS011;11117;48.644;9.006;2023-07-02T11:51:32;19.70;;;13.00;;
21905;SDS011;11117;48.644;9.006;2023-07-02T11:53:58;23.58;;;13.32;;
21905;SDS011;11117;48.644;9.006;2023-07-02T11:56:24;22.25;;;12.73;;
21905;SDS011;11117;48.644;9.006;2023-07-02T11:58:49;24.40;;;13.60;;
21905;SDS011;11117;48.644;9.006;2023-07-02T12:01:15;22.92;;;13.15;;
21905;SDS011;11117;48.644;9.006;2023-07-02T12:03:40;18.85;;;12.05;;
21905;SDS011;11117;48.644;9.006;2023-07-02T12:06:06;23.60;;;13.10;;
21905;SDS011;11117;48.644;9.006;2023-07-02T12:08:31;20.95;;;13.20;;
21905;SDS011;11117;48.644;9.006;2023-07-02T12:10:57;24.75;;;13.10;;
21905;SDS011;11117;48.644;9.006;2023-07-02T12:13:23;23.20;;;13.32;;
21905;SDS011;11117;48.644;9.006;2023-07-02T12:15:48;21.35;;;12.32;;
21905;SDS011;11117;48.644;9.006;2023-07-02T12:18:14;20.23;;;12.27;;
21905;SDS011;11117;48.644;9.006;2023-07-02T12:20:39;19.35;;;12.20;;
21905;SDS011;11117;48.644;9.006;2023-07-02T12:23:05;19.58;;;13.25;;
21905;SDS011;11117;48.644;9.006;2023-07-02T12:25:31;21.73;;;12.63;;
21905;SDS011;11117;48.644;9.006;2023-07-02T12:27:56;25.30;;;12.93;;
21905;SDS011;11117;48.644;9.006;2023-07-02T12:30:22;21.15;;;12.40;;
21905;SDS011;11117;48.644;9.006;2023-07-02T12:32:48;18.20;;;12.38;;
21905;SDS011;11117;48.644;9.006;2023-07-02T12:35:13;22.10;;;12.77;;
21905;SDS011;11117;48.644;9.006;2023-07-02T12:37:43;18.63;;;12.57;;
21905;SDS011;11117;48.644;9.006;2023-07-02T12:40:09;18.17;;;11.82;;
21905;SDS011;11117;48.644;9.006;2023-07-02T12:42:35;20.77;;;12.50;;
21905;SDS011;11117;48.644;9.006;2023-07-02T12:45:01;17.83;;;11.82;;
21905;SDS011;11117;48.644;9.006;2023-07-02T12:47:26;19.60;;;12.20;;
21905;SDS011;11117;48.644;9.006;2023-07-02T12:49:52;25.15;;;14.63;;
21905;SDS011;11117;48.644;9.006;2023-07-02T12:52:17;21.10;;;13.70;;
21905;SDS011;11117;48.644;9.006;2023-07-02T12:54:43;25.75;;;15.77;;
21905;SDS011;11117;48.644;9.006;2023-07-02T12:57:08;23.15;;;14.82;;
21905;SDS011;11117;48.644;9.006;2023-07-02T12:59:34;20.65;;;13.73;;
21905;SDS011;11117;48.644;9.006;2023-07-02T13:01:59;22.50;;;13.55;;
21905;SDS011;11117;48.644;9.006;2023-07-02T13:04:25;19.27;;;12.73;;
21905;SDS011;11117;48.644;9.006;2023-07-02T13:06:50;20.77;;;12.57;;
21905;SDS011;11117;48.644;9.006;2023-07-02T13:09:16;19.38;;;12.68;;
21905;SDS011;11117;48.644;9.006;2023-07-02T13:11:41;21.77;;;13.00;;
21905;SDS011;11117;48.644;9.006;2023-07-02T13:14:07;19.45;;;13.13;;
21905;SDS011;11117;48.644;9.006;2023-07-02T13:16:32;18.30;;;11.30;;
21905;SDS011;11117;48.644;9.006;2023-07-02T13:18:58;17.00;;;11.35;;
21905;SDS011;11117;48.644;9.006;2023-07-02T13:21:23;18.63;;;11.85;;
21905;SDS011;11117;48.644;9.006;2023-07-02T13:23:49;20.40;;;12.02;;
21905;SDS011;11117;48.644;9.006;2023-07-02T13:26:14;18.02;;;11.63;;
21905;SDS011;11117;48.644;9.006;2023-07-02T13:28:40;20.50;;;11.82;;
21905;SDS011;11117;48.644;9.006;2023-07-02T13:31:06;19.70;;;12.07;;
21905;SDS011;11117;48.644;9.006;2023-07-02T13:33:31;19.38;;;12.50;;
21905;SDS011;11117;48.644;9.006;2023-07-02T13:35:57;18.90;;;12.35;;
21905;SDS011;11117;48.644;9.006;2023-07-02T13:38:23;18.50;;;11.63;;
21905;SDS011;11117;48.644;9.006;2023-07-02T13:40:48;21.20;;;12.45;;
21905;SDS011;11117;48.644;9.006;2023-07-02T13:43:14;23.48;;;13.80;;
21905;SDS011;11117;48.644;9.006;2023-07-02T13:45:39;20.13;;;12.18;;
21905;SDS011;11117;48.644;9.006;2023-07-02T13:48:05;21.80;;;13.02;;
21905;SDS011;11117;48.644;9.006;2023-07-02T13:50:30;17.77;;;12.30;;
21905;SDS011;11117;48.644;9.006;2023-07-02T13:52:56;19.17;;;12.20;;
21905;SDS011;11117;48.644;9.006;2023-07-02T13:55:21;19.98;;;12.20;;
21905;SDS011;11117;48.644;9.006;2023-07-02T13:57:47;18.95;;;12.07;;
21905;SDS011;11117;48.644;9.006;2023-07-02T14:00:13;22.90;;;12.98;;
21905;SDS011;11117;48.644;9.006;2023-07-02T14:02:38;18.85;;;12.77;;
21905;SDS011;11117;48.644;9.006;2023-07-02T14:05:04;22.45;;;13.30;;
21905;SDS011;11117;48.644;9.006;2023-07-02T14:07:30;19.98;;;13.13;;
21905;SDS011;11117;48.644;9.006;2023-07-02T14:09:55;19.25;;;13.30;;
21905;SDS011;11117;48.644;9.006;2023-07-02T14:12:21;18.27;;;12.85;;
21905;SDS011;11117;48.644;9.006;2023-07-02T14:14:46;21.25;;;13.30;;
21905;SDS011;11117;48.644;9.006;2023-07-02T14:17:12;23.85;;;13.77;;
21905;SDS011;11117;48.644;9.006;2023-07-02T14:19:37;21.20;;;13.38;;
21905;SDS011;11117;48.644;9.006;2023-07-02T14:22:03;16.80;;;12.63;;
21905;SDS011;11117;48.644;9.006;2023-07-02T14:24:28;22.13;;;13.35;;
21905;SDS011;11117;48.644;9.006;2023-07-02T14:26:54;24.58;;;13.55;;
21905;SDS011;11117;48.644;9.006;2023-07-02T14:29:19;22.05;;;13.48;;
21905;SDS011;11117;48.644;9.006;2023-07-02T14:31:45;21.85;;;14.07;;
21905;SDS011;11117;48.644;9.006;2023-07-02T14:34:10;25.67;;;14.23;;
21905;SDS011;11117;48.644;9.006;2023-07-02T14:36:36;22.55;;;13.73;;